createdAt,value
2023-09-23T00:01:35.801Z,98854.05
2023-09-23T00:04:04.894Z,98854.15
2023-09-23T00:06:32.669Z,98855.19
2023-09-23T00:09:01.557Z,98855.57
2023-09-23T00:11:30.033Z,98851.13
2023-09-23T00:13:57.938Z,98850.83
2023-09-23T00:16:25.826Z,98846.36
2023-09-23T00:18:53.370Z,98848.52
2023-09-23T00:21:21.030Z,98849.58
2023-09-23T00:23:48.751Z,98849.70
2023-09-23T00:26:19.072Z,98851.77
2023-09-23T00:28:49.383Z,98849.25
2023-09-23T00:31:17.921Z,98853.02
2023-09-23T00:33:50.247Z,98852.39
2023-09-23T00:36:17.911Z,98851.26
2023-09-23T00:38:45.748Z,98847.59
2023-09-23T00:41:14.361Z,98847.46
2023-09-23T00:43:42.141Z,98851.05
2023-09-23T00:46:09.912Z,98852.36
2023-09-23T00:48:40.038Z,98854.55
2023-09-23T00:51:10.884Z,98846.82
2023-09-23T00:53:41.537Z,98846.75
2023-09-23T00:56:10.044Z,98842.88
2023-09-23T00:58:39.382Z,98843.98
2023-09-23T01:01:07.271Z,98839.84
2023-09-23T01:03:35.072Z,98840.36
2023-09-23T01:06:06.843Z,98839.77
2023-09-23T01:08:35.128Z,98839.64
2023-09-23T01:11:03.178Z,98841.53
2023-09-23T01:13:31.902Z,98844.96
2023-09-23T01:16:01.204Z,98844.85
2023-09-23T01:18:30.284Z,98841.61
2023-09-23T01:20:58.547Z,98848.49
2023-09-23T01:23:26.509Z,98847.50
2023-09-23T01:25:54.199Z,98848.90
2023-09-23T01:28:21.931Z,98849.23
2023-09-23T01:30:49.917Z,98849.95
2023-09-23T01:33:17.686Z,98853.85
2023-09-23T01:35:47.304Z,98851.34
2023-09-23T01:38:17.028Z,98853.89
2023-09-23T01:40:45.185Z,98850.16
2023-09-23T01:43:13.240Z,98852.94
2023-09-23T01:45:41.962Z,98856.92
2023-09-23T01:48:09.599Z,98856.70
2023-09-23T01:50:37.264Z,98857.46
2023-09-23T01:53:05.869Z,98857.07
2023-09-23T01:55:33.591Z,98856.85
2023-09-23T01:58:02.615Z,98862.15
2023-09-23T02:04:50.058Z,98862.48
2023-09-23T02:07:18.504Z,98860.20
2023-09-23T02:09:47.092Z,98861.92
2023-09-23T02:12:15.977Z,98857.98
2023-09-23T02:14:43.532Z,98855.10
2023-09-23T02:17:11.255Z,98858.90
2023-09-23T02:19:38.875Z,98861.71
2023-09-23T02:22:11.642Z,98862.16
2023-09-23T02:24:39.401Z,98862.04
2023-09-23T02:27:07.573Z,98863.41
2023-09-23T02:29:36.055Z,98862.54
2023-09-23T02:32:03.983Z,98867.77
2023-09-23T02:34:31.686Z,98866.87
2023-09-23T02:36:59.290Z,98861.63
2023-09-23T02:39:26.839Z,98866.05
2023-09-23T02:41:54.369Z,98867.96
2023-09-23T02:44:24.296Z,98863.81
2023-09-23T02:46:54.421Z,98860.15
2023-09-23T02:49:22.364Z,98866.08
2023-09-23T02:51:50.523Z,98861.27
2023-09-23T02:54:18.936Z,98859.48
2023-09-23T02:56:49.750Z,98860.43
2023-09-23T02:59:23.014Z,98858.14
2023-09-23T03:01:53.249Z,98856.05
2023-09-23T03:04:25.169Z,98855.05
2023-09-23T03:07:01.185Z,98854.77
2023-09-23T03:09:33.825Z,98858.95
2023-09-23T03:12:02.357Z,98857.17
2023-09-23T03:14:44.046Z,98856.93
2023-09-23T03:17:14.248Z,98853.96
2023-09-23T03:19:42.024Z,98849.50
2023-09-23T03:22:09.668Z,98847.83
2023-09-23T03:24:37.255Z,98853.11
2023-09-23T03:27:04.883Z,98852.45
2023-09-23T03:29:34.079Z,98851.42
2023-09-23T03:34:44.062Z,98843.11
2023-09-23T03:37:21.163Z,98839.15
2023-09-23T03:39:48.610Z,98834.60
2023-09-23T03:42:18.182Z,98834.15
2023-09-23T03:44:45.843Z,98835.58
2023-09-23T03:47:14.057Z,98835.05
2023-09-23T03:49:41.788Z,98836.27
2023-09-23T03:52:09.440Z,98838.83
2023-09-23T03:54:37.517Z,98845.84
2023-09-23T03:57:06.080Z,98845.36
2023-09-23T03:59:34.175Z,98849.55
2023-09-23T04:02:01.988Z,98850.92
2023-09-23T04:04:29.692Z,98855.29
2023-09-23T04:06:58.482Z,98856.98
2023-09-23T04:09:26.037Z,98857.63
2023-09-23T04:11:53.840Z,98859.92
2023-09-23T04:14:22.088Z,98865.23
2023-09-23T04:16:49.752Z,98869.71
2023-09-23T04:19:17.396Z,98873.48
2023-09-23T04:21:45.060Z,98878.39
2023-09-23T04:24:12.629Z,98878.98
2023-09-23T04:26:40.394Z,98878.14
2023-09-23T04:29:08.957Z,98879.27
2023-09-23T04:31:36.625Z,98881.19
2023-09-23T04:34:04.306Z,98882.80
2023-09-23T04:36:32.162Z,98888.94
2023-09-23T04:38:59.712Z,98888.03
2023-09-23T04:41:27.378Z,98894.25
2023-09-23T04:43:55.059Z,98895.27
2023-09-23T04:46:22.748Z,98902.63
2023-09-23T04:48:50.660Z,98911.46
2023-09-23T04:51:18.857Z,98914.64
2023-09-23T04:53:46.517Z,98914.00
2023-09-23T04:56:18.615Z,98911.05
2023-09-23T04:58:47.210Z,98907.39
2023-09-23T05:01:17.267Z,98908.06
2023-09-23T05:03:45.146Z,98910.21
2023-09-23T05:06:13.413Z,98911.14
2023-09-23T05:08:41.061Z,98920.46
2023-09-23T05:11:08.676Z,98922.76
2023-09-23T05:13:38.599Z,98926.17
2023-09-23T05:16:06.423Z,98926.52
2023-09-23T05:18:34.335Z,98927.46
2023-09-23T05:21:02.038Z,98928.77
2023-09-23T05:23:30.411Z,98929.86
2023-09-23T05:25:59.528Z,98931.95
2023-09-23T05:28:28.287Z,98930.46
2023-09-23T05:30:56.015Z,98932.08
2023-09-23T05:33:23.697Z,98933.05
2023-09-23T05:35:53.418Z,98937.45
2023-09-23T05:38:21.034Z,98942.55
2023-09-23T05:40:48.886Z,98951.22
2023-09-23T05:43:16.608Z,98948.92
2023-09-23T05:45:44.282Z,98947.48
2023-09-23T05:48:11.989Z,98948.33
2023-09-23T05:50:39.898Z,98951.20
2023-09-23T05:53:07.818Z,98950.55
2023-09-23T05:55:35.438Z,98952.75
2023-09-23T05:58:03.049Z,98953.73
2023-09-23T06:00:33.756Z,98952.91
2023-09-23T06:03:01.853Z,98947.91
2023-09-23T06:05:29.633Z,98945.02
2023-09-23T06:07:57.598Z,98943.63
2023-09-23T06:10:25.501Z,98945.88
2023-09-23T06:12:53.219Z,98948.82
2023-09-23T06:15:21.020Z,98946.40
2023-09-23T06:17:48.791Z,98944.09
2023-09-23T06:20:16.630Z,98944.11
2023-09-23T06:22:44.259Z,98948.70
2023-09-23T06:25:12.146Z,98952.36
2023-09-23T06:27:39.692Z,98958.19
2023-09-23T06:30:07.834Z,98959.55
2023-09-23T06:32:35.746Z,98956.03
2023-09-23T06:35:03.814Z,98959.84
2023-09-23T06:37:31.701Z,98963.16
2023-09-23T06:39:59.373Z,98954.02
2023-09-23T06:42:27.027Z,98954.78
2023-09-23T06:44:54.786Z,98958.59
2023-09-23T06:47:22.628Z,98959.44
2023-09-23T06:49:50.302Z,98967.67
2023-09-23T06:52:17.818Z,98967.98
2023-09-23T06:54:45.833Z,98966.02
2023-09-23T06:57:14.733Z,98967.17
2023-09-23T06:59:42.402Z,98967.41
2023-09-23T07:02:10.141Z,98963.30
2023-09-23T07:04:38.158Z,98964.86
2023-09-23T07:07:05.621Z,98965.16
2023-09-23T07:09:33.190Z,98963.91
2023-09-23T07:12:00.743Z,98964.27
2023-09-23T07:14:28.353Z,98962.91
2023-09-23T07:16:57.110Z,98959.86
2023-09-23T07:19:25.250Z,98960.60
2023-09-23T07:21:53.038Z,98961.34
2023-09-23T07:24:20.705Z,98969.41
2023-09-23T07:26:48.360Z,98971.13
2023-09-23T07:29:16.073Z,98972.55
2023-09-23T07:31:43.994Z,98973.85
2023-09-23T07:34:13.320Z,98977.33
2023-09-23T07:36:41.569Z,98980.61
2023-09-23T07:39:09.326Z,98978.03
2023-09-23T07:41:37.117Z,98976.46
2023-09-23T07:44:05.353Z,98971.14
2023-09-23T07:46:33.847Z,98968.95
2023-09-23T07:49:03.649Z,98962.98
2023-09-23T07:51:32.861Z,98966.00
2023-09-23T07:54:00.517Z,98974.53
2023-09-23T07:56:28.627Z,98969.39
2023-09-23T07:58:56.601Z,98963.67
2023-09-23T08:01:24.230Z,98960.12
2023-09-23T08:03:53.376Z,98963.48
2023-09-23T08:06:22.240Z,98961.67
2023-09-23T08:08:50.085Z,98967.48
2023-09-23T08:11:18.115Z,98971.78
2023-09-23T08:13:46.159Z,98968.81
2023-09-23T08:16:14.091Z,98967.69
2023-09-23T08:18:42.394Z,98966.80
2023-09-23T08:21:10.212Z,98971.65
2023-09-23T08:23:37.908Z,98969.63
2023-09-23T08:26:05.755Z,98972.20
2023-09-23T08:28:33.705Z,98975.30
2023-09-23T08:31:01.469Z,98976.52
2023-09-23T08:33:29.623Z,98977.94
2023-09-23T08:35:57.305Z,98981.52
2023-09-23T08:38:24.871Z,98981.02
2023-09-23T08:40:52.803Z,98975.73
2023-09-23T08:43:24.546Z,98970.06
2023-09-23T08:45:52.261Z,98968.02
2023-09-23T08:48:19.882Z,98966.48
2023-09-23T08:50:48.203Z,98961.88
2023-09-23T08:53:16.423Z,98966.02
2023-09-23T08:55:44.871Z,98966.20
2023-09-23T08:58:12.624Z,98961.05
2023-09-23T09:00:47.028Z,98957.92
2023-09-23T09:03:15.490Z,98959.63
2023-09-23T09:05:45.221Z,98959.11
2023-09-23T09:08:14.258Z,98960.41
2023-09-23T09:10:42.825Z,98964.91
2023-09-23T09:13:19.023Z,98970.18
2023-09-23T09:15:46.873Z,98971.98
2023-09-23T09:18:14.766Z,98971.94
2023-09-23T09:20:43.677Z,98974.63
2023-09-23T09:23:16.712Z,98971.86
2023-09-23T09:25:48.529Z,98975.96
2023-09-23T09:28:19.463Z,98981.85
2023-09-23T09:30:49.308Z,98974.96
2023-09-23T09:33:17.621Z,98978.23
2023-09-23T09:35:45.751Z,98973.75
2023-09-23T09:38:44.286Z,98978.05
2023-09-23T09:41:15.794Z,98979.55
2023-09-23T09:43:46.948Z,98977.16
2023-09-23T09:46:14.993Z,98975.96
2023-09-23T09:48:43.008Z,98981.18
2023-09-23T09:51:17.202Z,98982.25
2023-09-23T09:53:46.309Z,98987.42
2023-09-23T09:56:14.169Z,98987.70
2023-09-23T09:58:42.699Z,98985.89
2023-09-23T10:01:13.349Z,98982.89
2023-09-23T10:03:44.764Z,98986.89
2023-09-23T10:06:20.147Z,98985.57
2023-09-23T10:08:50.915Z,98981.89
2023-09-23T10:11:18.517Z,98981.64
2023-09-23T10:13:47.331Z,98983.02
2023-09-23T10:16:19.050Z,98978.05
2023-09-23T10:18:56.881Z,98978.67
2023-09-23T10:21:25.990Z,98974.99
2023-09-23T10:23:57.020Z,98973.04
2023-09-23T10:26:25.107Z,98973.10
2023-09-23T10:29:12.136Z,98974.93
2023-09-23T10:31:39.813Z,98968.34
2023-09-23T10:34:08.272Z,98964.96
2023-09-23T10:36:37.940Z,98957.67
2023-09-23T10:39:08.701Z,98966.06
2023-09-23T10:41:37.007Z,98964.20
2023-09-23T10:44:04.890Z,98961.20
2023-09-23T10:46:33.063Z,98955.75
2023-09-23T10:49:04.982Z,98946.66
2023-09-23T10:51:34.619Z,98942.85
2023-09-23T10:54:02.757Z,98936.18
2023-09-23T10:56:30.757Z,98936.63
2023-09-23T10:58:58.584Z,98934.20
2023-09-23T11:01:26.486Z,98930.67
2023-09-23T11:03:56.187Z,98931.05
2023-09-23T11:06:24.074Z,98927.87
2023-09-23T11:08:51.701Z,98923.14
2023-09-23T11:11:19.916Z,98924.77
2023-09-23T11:13:48.444Z,98920.93
2023-09-23T11:16:16.271Z,98918.00
2023-09-23T11:18:45.783Z,98914.34
2023-09-23T11:21:13.893Z,98908.40
2023-09-23T11:23:41.535Z,98902.14
2023-09-23T11:26:09.184Z,98899.73
2023-09-23T11:28:36.745Z,98894.49
2023-09-23T11:31:04.297Z,98894.92
2023-09-23T11:33:31.885Z,98897.98
2023-09-23T11:35:59.412Z,98901.18
2023-09-23T11:38:27.105Z,98900.56
2023-09-23T11:40:56.054Z,98900.73
2023-09-23T11:43:23.762Z,98899.80
2023-09-23T11:45:51.514Z,98894.58
2023-09-23T11:48:19.443Z,98893.48
2023-09-23T11:50:47.565Z,98888.77
2023-09-23T11:53:15.258Z,98889.05
2023-09-23T11:55:43.500Z,98882.20
2023-09-23T11:58:11.069Z,98875.37
2023-09-23T12:00:38.757Z,98869.20
2023-09-23T12:03:06.490Z,98861.98
2023-09-23T12:05:34.354Z,98854.84
2023-09-23T12:08:02.464Z,98864.42
2023-09-23T12:10:31.309Z,98871.24
2023-09-23T12:13:05.363Z,98873.15
2023-09-23T12:15:33.633Z,98873.87
2023-09-23T12:18:01.384Z,98871.30
2023-09-23T12:20:29.933Z,98869.48
2023-09-23T12:23:00.218Z,98867.96
2023-09-23T12:25:27.826Z,98864.61
2023-09-23T12:27:59.000Z,98867.55
2023-09-23T12:30:27.164Z,98870.45
2023-09-23T12:32:55.013Z,98874.14
2023-09-23T12:35:22.808Z,98873.17
2023-09-23T12:37:50.601Z,98864.30
2023-09-23T12:40:18.318Z,98870.10
2023-09-23T12:42:46.083Z,98871.77
2023-09-23T12:45:14.600Z,98875.72
2023-09-23T12:47:56.767Z,98880.96
2023-09-23T12:50:26.610Z,98875.73
2023-09-23T12:52:54.963Z,98873.67
2023-09-23T12:55:22.657Z,98872.77
2023-09-23T12:57:54.668Z,98874.70
2023-09-23T13:00:23.398Z,98871.61
2023-09-23T13:02:52.027Z,98874.60
2023-09-23T13:05:20.125Z,98872.67
2023-09-23T13:07:47.791Z,98870.02
2023-09-23T13:10:15.599Z,98872.75
2023-09-23T13:12:43.317Z,98880.00
2023-09-23T13:15:10.973Z,98887.19
2023-09-23T13:17:38.762Z,98889.66
2023-09-23T13:20:07.326Z,98886.84
2023-09-23T13:22:35.905Z,98883.80
2023-09-23T13:25:04.292Z,98879.05
2023-09-23T13:27:33.182Z,98885.41
2023-09-23T13:30:00.894Z,98888.33
2023-09-23T13:32:28.603Z,98888.46
2023-09-23T13:34:56.311Z,98888.04
2023-09-23T13:37:23.925Z,98886.51
2023-09-23T13:39:53.652Z,98892.98
2023-09-23T13:42:23.038Z,98893.28
2023-09-23T13:44:51.523Z,98889.91
2023-09-23T13:47:19.401Z,98884.27
2023-09-23T13:49:47.141Z,98882.86
2023-09-23T13:52:15.231Z,98884.08
2023-09-23T13:54:42.881Z,98887.73
2023-09-23T13:57:10.369Z,98886.49
2023-09-23T13:59:38.046Z,98880.39
2023-09-23T14:02:06.420Z,98878.73
2023-09-23T14:04:34.434Z,98875.37
2023-09-23T14:07:02.151Z,98870.41
2023-09-23T14:09:30.577Z,98866.45
2023-09-23T14:11:59.498Z,98867.71
2023-09-23T14:14:27.107Z,98864.52
2023-09-23T14:16:54.749Z,98864.08
2023-09-23T14:19:22.875Z,98869.66
2023-09-23T14:21:50.365Z,98869.17
2023-09-23T14:24:18.005Z,98869.25
2023-09-23T14:26:46.626Z,98865.30
2023-09-23T14:29:14.889Z,98864.36
2023-09-23T14:31:42.614Z,98863.13
2023-09-23T14:34:10.873Z,98860.34
2023-09-23T14:36:39.055Z,98861.13
2023-09-23T14:39:06.713Z,98860.48
2023-09-23T14:41:35.268Z,98859.86
2023-09-23T14:44:06.578Z,98855.33
2023-09-23T14:46:34.446Z,98851.58
2023-09-23T14:49:02.068Z,98851.33
2023-09-23T14:51:29.555Z,98847.91
2023-09-23T14:53:57.180Z,98847.20
2023-09-23T14:56:24.963Z,98850.99
2023-09-23T14:58:52.918Z,98849.86
2023-09-23T15:01:20.607Z,98849.09
2023-09-23T15:03:48.312Z,98845.31
2023-09-23T15:06:16.105Z,98845.86
2023-09-23T15:08:59.511Z,98844.21
2023-09-23T15:11:30.793Z,98840.73
2023-09-23T15:13:58.581Z,98843.06
2023-09-23T15:16:30.851Z,98848.13
2023-09-23T15:18:59.021Z,98844.92
2023-09-23T15:21:26.764Z,98849.48
2023-09-23T15:23:54.523Z,98855.46
2023-09-23T15:26:22.975Z,98866.58
2023-09-23T15:28:51.287Z,98871.63
2023-09-23T15:31:19.347Z,98876.38
2023-09-23T15:33:47.516Z,98880.66
2023-09-23T15:36:15.792Z,98881.44
2023-09-23T15:38:43.270Z,98886.89
2023-09-23T15:41:13.523Z,98887.61
2023-09-23T15:43:42.362Z,98884.73
2023-09-23T15:46:10.307Z,98881.88
2023-09-23T15:48:38.094Z,98879.55
2023-09-23T15:51:13.778Z,98882.40
2023-09-23T15:53:41.470Z,98880.24
2023-09-23T15:56:10.196Z,98878.73
2023-09-23T15:58:39.125Z,98878.98
2023-09-23T16:01:07.284Z,98882.16
2023-09-23T16:03:35.542Z,98892.20
2023-09-23T16:06:03.806Z,98894.66
2023-09-23T16:08:31.477Z,98895.80
2023-09-23T16:10:59.126Z,98896.55
2023-09-23T16:13:26.800Z,98896.89
2023-09-23T16:15:54.511Z,98899.58
2023-09-23T16:18:23.387Z,98900.20
2023-09-23T16:20:54.791Z,98902.81
2023-09-23T16:23:22.498Z,98904.11
2023-09-23T16:25:50.728Z,98913.84
2023-09-23T16:28:18.507Z,98917.81
2023-09-23T16:30:46.470Z,98919.03
2023-09-23T16:33:14.135Z,98919.93
2023-09-23T16:35:41.914Z,98917.86
2023-09-23T16:38:09.561Z,98923.88
2023-09-23T16:45:05.648Z,98932.58
2023-09-23T16:47:33.252Z,98936.62
2023-09-23T16:50:00.944Z,98943.56
2023-09-23T16:52:28.584Z,98945.89
2023-09-23T16:54:56.659Z,98947.20
2023-09-23T16:57:24.367Z,98949.23
2023-09-23T16:59:52.193Z,98947.39
2023-09-23T17:02:20.232Z,98945.75
2023-09-23T17:04:49.600Z,98950.91
2023-09-23T17:07:18.757Z,98956.73
2023-09-23T17:09:46.410Z,98964.23
2023-09-23T17:12:14.287Z,98962.45
2023-09-23T17:14:43.149Z,98965.45
2023-09-23T17:17:11.804Z,98962.89
2023-09-23T17:19:39.509Z,98965.52
2023-09-23T17:22:07.069Z,98962.70
2023-09-23T17:24:37.499Z,98965.51
2023-09-23T17:27:05.777Z,98966.36
2023-09-23T17:29:33.670Z,98966.30
2023-09-23T17:32:01.227Z,98967.14
2023-09-23T17:34:28.852Z,98971.05
2023-09-23T17:36:56.463Z,98972.41
2023-09-23T17:39:23.973Z,98978.27
2023-09-23T17:41:51.568Z,98981.48
2023-09-23T17:44:19.223Z,98980.79
2023-09-23T17:46:47.097Z,98984.85
2023-09-23T17:49:14.666Z,98984.77
2023-09-23T17:51:43.206Z,98986.32
2023-09-23T17:54:10.866Z,98986.71
2023-09-23T17:56:38.562Z,98980.53
2023-09-23T17:59:06.512Z,98984.09
2023-09-23T18:01:34.346Z,98987.83
2023-09-23T18:04:02.235Z,98992.69
2023-09-23T18:06:30.306Z,98988.35
2023-09-23T18:08:57.968Z,98991.91
2023-09-23T18:11:25.874Z,98989.92
2023-09-23T18:13:53.592Z,98991.39
2023-09-23T18:16:21.339Z,98997.21
2023-09-23T18:18:49.428Z,98991.48
2023-09-23T18:21:19.141Z,98994.45
2023-09-23T18:23:47.295Z,98999.31
2023-09-23T18:26:16.279Z,99001.12
2023-09-23T18:28:47.549Z,99003.20
2023-09-23T18:31:15.110Z,99003.61
2023-09-23T18:33:42.900Z,99001.89
2023-09-23T18:36:12.193Z,99004.05
2023-09-23T18:38:40.055Z,99003.07
2023-09-23T18:41:08.461Z,99000.10
2023-09-23T18:43:36.301Z,98995.63
2023-09-23T18:46:04.114Z,98995.85
2023-09-23T18:48:33.343Z,98996.31
2023-09-23T18:51:01.414Z,98997.94
2023-09-23T18:53:29.244Z,98999.36
2023-09-23T18:56:01.134Z,99004.16
2023-09-23T18:58:29.224Z,99004.67
2023-09-23T19:00:56.880Z,99006.81
2023-09-23T19:03:25.098Z,99010.14
2023-09-23T19:05:54.014Z,99015.16
2023-09-23T19:08:21.805Z,99018.52
2023-09-23T19:10:49.456Z,99025.67
2023-09-23T19:13:17.277Z,99029.29
2023-09-23T19:15:49.497Z,99032.92
2023-09-23T19:18:17.553Z,99034.14
2023-09-23T19:20:45.369Z,99033.73
2023-09-23T19:23:15.396Z,99034.70
2023-09-23T19:25:43.219Z,99036.13
2023-09-23T19:28:10.800Z,99033.56
2023-09-23T19:30:38.430Z,99032.88
2023-09-23T19:33:06.723Z,99034.58
2023-09-23T19:35:37.271Z,99031.80
2023-09-23T19:38:05.691Z,99032.27
2023-09-23T19:40:33.312Z,99032.20
2023-09-23T19:43:01.439Z,99028.34
2023-09-23T19:45:29.107Z,99021.95
2023-09-23T19:47:57.431Z,99014.47
2023-09-23T19:50:26.519Z,99007.96
2023-09-23T19:52:54.043Z,99009.61
2023-09-23T19:55:21.594Z,99010.13
2023-09-23T19:57:49.194Z,99011.74
2023-09-23T20:00:17.062Z,99015.54
2023-09-23T20:02:44.746Z,99015.64
2023-09-23T20:05:13.711Z,99016.30
2023-09-23T20:07:41.432Z,99018.46
2023-09-23T20:10:11.785Z,99021.10
2023-09-23T20:12:39.421Z,99019.41
2023-09-23T20:15:07.757Z,99023.82
2023-09-23T20:17:35.913Z,99021.08
2023-09-23T20:20:10.096Z,99017.23
2023-09-23T20:22:37.957Z,99015.64
2023-09-23T20:25:06.360Z,99015.14
2023-09-23T20:27:34.197Z,99008.48
2023-09-23T20:30:07.668Z,99009.36
2023-09-23T20:32:44.090Z,99004.76
2023-09-23T20:35:13.399Z,99003.71
2023-09-23T20:37:44.529Z,99005.24
2023-09-23T20:40:16.978Z,99005.24
2023-09-23T20:42:45.146Z,99002.34
2023-09-23T20:45:13.670Z,99005.23
2023-09-23T20:47:41.986Z,99006.45
2023-09-23T20:50:11.221Z,99004.65
2023-09-23T20:52:39.086Z,99002.55
2023-09-23T20:55:07.442Z,99000.29
2023-09-23T20:57:35.103Z,99000.26
2023-09-23T21:00:09.114Z,98998.20
2023-09-23T21:02:36.815Z,98994.73
2023-09-23T21:05:05.252Z,98994.20
2023-09-23T21:07:33.140Z,98994.35
2023-09-23T21:10:02.140Z,98993.15
2023-09-23T21:12:29.773Z,98995.52
2023-09-23T21:14:57.443Z,98989.16
2023-09-23T21:17:25.316Z,98988.90
2023-09-23T21:19:54.101Z,98987.89
2023-09-23T21:22:21.748Z,98984.89
2023-09-23T21:24:49.408Z,98982.98
2023-09-23T21:27:17.170Z,98985.41
2023-09-23T21:29:44.896Z,98983.71
2023-09-23T21:32:12.699Z,98983.38
2023-09-23T21:34:40.470Z,98982.42
2023-09-23T21:37:08.534Z,98984.04
2023-09-23T21:39:36.511Z,98986.52
2023-09-23T21:42:04.295Z,98982.43
2023-09-23T21:44:31.953Z,98980.16
2023-09-23T21:46:59.641Z,98984.34
2023-09-23T21:49:27.143Z,98986.92
2023-09-23T21:51:54.804Z,98985.97
2023-09-23T21:54:22.467Z,98983.81
2023-09-23T21:56:50.053Z,98981.56
2023-09-23T21:59:17.824Z,98977.60
2023-09-23T22:01:46.910Z,98977.73
2023-09-23T22:04:15.589Z,98979.98
2023-09-23T22:06:43.455Z,98983.66
2023-09-23T22:09:11.095Z,98984.35
2023-09-23T22:11:38.808Z,98979.52
2023-09-23T22:14:07.843Z,98980.62
2023-09-23T22:16:36.163Z,98980.97
2023-09-23T22:19:06.784Z,98986.91
2023-09-23T22:21:36.778Z,98990.37
2023-09-23T22:24:07.154Z,98988.45
2023-09-23T22:26:39.062Z,98988.34
2023-09-23T22:29:11.039Z,98990.85
2023-09-23T22:31:40.252Z,98988.45
2023-09-23T22:34:08.230Z,98991.70
2023-09-23T22:36:35.761Z,98991.86
2023-09-23T22:39:04.273Z,98985.67
2023-09-23T22:41:32.219Z,98987.62
2023-09-23T22:44:00.520Z,98988.35
2023-09-23T22:46:28.344Z,98991.35
2023-09-23T22:48:56.100Z,98992.56
2023-09-23T22:51:23.650Z,98992.42
2023-09-23T22:53:51.636Z,98993.38
2023-09-23T22:56:19.722Z,98997.25
2023-09-23T22:58:48.586Z,98991.61
2023-09-23T23:01:17.534Z,98994.38
2023-09-23T23:03:45.689Z,98995.30
2023-09-23T23:06:13.768Z,98992.05
2023-09-23T23:08:42.709Z,98993.75
2023-09-23T23:11:10.912Z,99000.69
2023-09-23T23:13:39.536Z,98998.72
2023-09-23T23:16:13.866Z,99003.49
2023-09-23T23:18:41.699Z,99003.51
2023-09-23T23:21:09.423Z,99005.58
2023-09-23T23:23:37.469Z,99006.59
2023-09-23T23:26:08.341Z,99006.23
2023-09-23T23:28:36.501Z,99004.02
2023-09-23T23:31:06.010Z,99003.30
2023-09-23T23:33:33.758Z,99002.95
2023-09-23T23:36:02.072Z,99000.98
2023-09-23T23:38:32.537Z,99003.36
2023-09-23T23:41:03.125Z,99006.64
2023-09-23T23:43:30.879Z,99008.78
2023-09-23T23:46:00.249Z,99010.23
2023-09-23T23:48:31.495Z,99015.04
2023-09-23T23:51:06.637Z,99012.66
2023-09-23T23:53:34.356Z,99011.41
2023-09-23T23:56:02.931Z,99014.37
2023-09-23T23:58:30.540Z,99013.69
